PWSweather.com
Personal Weather Stations
Station Observations
EW0150
Górny Śląsk, RybnikPL

Górny ŚląskRybnikPL

Lat: 50.087081, Lon: 18.527439

Elevation: 895

Station Type: Davis Vantage Pro 2 Plus

http://pogoda.poczta.rybnik.pl/index.htm

Latest ConditionsUpdated 4:18:17 AM GMT+01:01 Friday, Apr 19, 2019
Currently Today's Max Today's Min Today's Average
Temperature 47.7°F8.7°C 51.1°F10.6°C 45.5°F7.5°C 48.7°F9.3°C
Dew Point 37.9°F3.3°C 38.7°F3.7°C 37.4°F3.0°C 38.1°F3.4°C
Winds 3.0 mph S4.8 kmh S 5.0 mph -8.0 kmh - - 1.8 mph 2.9 kmh
Wind Gusts 5.0 mph8.0 kmh 8.0 mph12.9 kmh - -
Humidity 69% 74% 61% 67%
Pressure 30.45 in1031.2 mb 30.45 in1031.2 mb 30.44 in1030.8 mb -
Hour Temp Dew Point Humidity Winds Wind Gusts Pressure Precip Precip Rate Daily Precip Total
04:18 AM 47.7°F8.7°C 37.9°F3.3°C 69% 3.0 mph S4.8 kmh S 5.0 mph8.0 kmh 30.45 in1031.2 mb 0.00 in0.0 mm 0.00 in0.0 mm 0.00 in0.0 mm
04:07 AM 47.1°F8.4°C 37.9°F3.3°C 70% 3.0 mph SSE4.8 kmh SSE 4.0 mph6.4 kmh 30.45 in1031.2 mb 0.00 in0.0 mm 0.00 in0.0 mm 0.00 in0.0 mm
03:56 AM 46.6°F8.1°C 37.8°F3.2°C 71% 4.0 mph SSE6.4 kmh SSE 5.0 mph8.0 kmh 30.45 in1031.2 mb 0.00 in0.0 mm 0.00 in0.0 mm 0.00 in0.0 mm
03:45 AM 46.6°F8.1°C 38.1°F3.4°C 72% 3.0 mph ESE4.8 kmh ESE 5.0 mph8.0 kmh 30.44 in1030.8 mb 0.00 in0.0 mm 0.00 in0.0 mm 0.00 in0.0 mm
03:34 AM 46.9°F8.3°C 38.5°F3.6°C 72% Calm Calm 3.0 mph4.8 kmh 30.45 in1031.2 mb 0.00 in0.0 mm 0.00 in0.0 mm 0.00 in0.0 mm
03:23 AM 46.2°F7.9°C 38.3°F3.5°C 74% 1.0 mph NE1.6 kmh NE 3.0 mph4.8 kmh 30.45 in1031.2 mb 0.00 in0.0 mm 0.00 in0.0 mm 0.00 in0.0 mm
03:12 AM 45.5°F7.5°C 37.4°F3.0°C 73% 3.0 mph NE4.8 kmh NE 8.0 mph12.9 kmh 30.45 in1031.2 mb 0.00 in0.0 mm 0.00 in0.0 mm 0.00 in0.0 mm
03:01 AM 48.0°F8.9°C 37.6°F3.1°C 67% Calm Calm -- 30.45 in1031.2 mb 0.00 in0.0 mm 0.00 in0.0 mm 0.00 in0.0 mm
02:50 AM 48.4°F9.1°C 37.9°F3.3°C 67% Calm Calm -- 30.44 in1030.8 mb 0.00 in0.0 mm 0.00 in0.0 mm 0.00 in0.0 mm
02:39 AM 48.6°F9.2°C 38.5°F3.6°C 68% Calm Calm -- 30.44 in1030.8 mb 0.00 in0.0 mm 0.00 in0.0 mm 0.00 in0.0 mm
02:28 AM 48.7°F9.3°C 37.8°F3.2°C 66% Calm Calm -- 30.44 in1030.8 mb 0.00 in0.0 mm 0.00 in0.0 mm 0.00 in0.0 mm
02:17 AM 48.7°F9.3°C 38.7°F3.7°C 68% Calm Calm -- 30.44 in1030.8 mb 0.00 in0.0 mm 0.00 in0.0 mm 0.00 in0.0 mm
02:06 AM 48.7°F9.3°C 37.9°F3.3°C 66% Calm Calm -- 30.44 in1030.8 mb 0.00 in0.0 mm 0.00 in0.0 mm 0.00 in0.0 mm
01:55 AM 48.6°F9.2°C 37.8°F3.2°C 66% Calm Calm -- 30.44 in1030.8 mb 0.00 in0.0 mm 0.00 in0.0 mm 0.00 in0.0 mm
01:44 AM 48.9°F9.4°C 37.8°F3.2°C 65% Calm Calm -- 30.44 in1030.8 mb 0.00 in0.0 mm 0.00 in0.0 mm 0.00 in0.0 mm
01:33 AM 49.3°F9.6°C 37.9°F3.3°C 65% Calm Calm -- 30.44 in1030.8 mb 0.00 in0.0 mm 0.00 in0.0 mm 0.00 in0.0 mm
01:22 AM 49.5°F9.7°C 38.1°F3.4°C 65% 1.0 mph NE1.6 kmh NE 3.0 mph4.8 kmh 30.45 in1031.2 mb 0.00 in0.0 mm 0.00 in0.0 mm 0.00 in0.0 mm
01:11 AM 49.8°F9.9°C 38.1°F3.4°C 64% 3.0 mph NE4.8 kmh NE 4.0 mph6.4 kmh 30.45 in1031.2 mb 0.00 in0.0 mm 0.00 in0.0 mm 0.00 in0.0 mm
01:00 AM 50.4°F10.2°C 38.1°F3.4°C 63% 3.0 mph NE4.8 kmh NE 5.0 mph8.0 kmh 30.45 in1031.2 mb 0.00 in0.0 mm 0.00 in0.0 mm 0.00 in0.0 mm
12:49 AM 50.5°F10.3°C 38.1°F3.4°C 62% 4.0 mph NE6.4 kmh NE 6.0 mph9.7 kmh 30.45 in1031.2 mb 0.00 in0.0 mm 0.00 in0.0 mm 0.00 in0.0 mm
12:38 AM 50.7°F10.4°C 38.3°F3.5°C 62% 4.0 mph NE6.4 kmh NE 6.0 mph9.7 kmh 30.45 in1031.2 mb 0.00 in0.0 mm 0.00 in0.0 mm 0.00 in0.0 mm
12:27 AM 51.1°F10.6°C 38.5°F3.6°C 62% 5.0 mph NE8.0 kmh NE 6.0 mph9.7 kmh 30.45 in1031.2 mb 0.00 in0.0 mm 0.00 in0.0 mm 0.00 in0.0 mm
12:16 AM 51.1°F10.6°C 38.1°F3.4°C 61% 4.0 mph NE6.4 kmh NE 5.0 mph8.0 kmh 30.45 in1031.2 mb 0.00 in0.0 mm 0.00 in0.0 mm 0.00 in0.0 mm
12:05 AM 50.7°F10.4°C 38.7°F3.7°C 63% 3.0 mph NE4.8 kmh NE 4.0 mph6.4 kmh 30.45 in1031.2 mb 0.00 in0.0 mm 0.00 in0.0 mm 0.00 in0.0 mm